createdAt,value
2016-12-05T00:00:12.316Z,923.79
2016-12-05T00:00:40.657Z,923.78
2016-12-05T00:01:08.770Z,923.79
2016-12-05T00:01:37.135Z,923.77
2016-12-05T00:02:05.431Z,923.8
2016-12-05T00:02:33.685Z,923.8
2016-12-05T00:03:01.983Z,923.84
2016-12-05T00:03:30.298Z,923.83
2016-12-05T00:03:58.522Z,923.81
2016-12-05T00:04:26.731Z,923.83
2016-12-05T00:04:55.009Z,923.82
2016-12-05T00:05:23.258Z,923.81
2016-12-05T00:05:51.484Z,923.79
2016-12-05T00:06:19.717Z,923.8
2016-12-05T00:06:48.035Z,923.77
2016-12-05T00:07:16.321Z,923.78
2016-12-05T00:07:44.556Z,923.76
2016-12-05T00:08:12.790Z,923.75
2016-12-05T00:08:41.057Z,923.74
2016-12-05T00:09:09.334Z,923.78
2016-12-05T00:09:37.492Z,923.72
2016-12-05T00:10:05.728Z,923.75
2016-12-05T00:10:34.070Z,923.77
2016-12-05T00:11:02.388Z,923.72
2016-12-05T00:11:30.555Z,923.69
2016-12-05T00:11:58.616Z,923.75
2016-12-05T00:12:26.892Z,923.65
2016-12-05T00:12:55.059Z,923.68
2016-12-05T00:13:23.225Z,923.71
2016-12-05T00:13:51.231Z,923.66
2016-12-05T00:14:19.360Z,923.65
2016-12-05T00:14:47.556Z,923.65
2016-12-05T00:15:15.856Z,923.67
2016-12-05T00:15:44.145Z,923.65
2016-12-05T00:16:12.278Z,923.71
2016-12-05T00:16:40.621Z,923.77
2016-12-05T00:17:08.914Z,923.78
2016-12-05T00:17:36.954Z,923.78
2016-12-05T00:18:05.073Z,923.78
2016-12-05T00:18:33.195Z,923.76
2016-12-05T00:19:01.448Z,923.79
2016-12-05T00:19:29.759Z,923.74
2016-12-05T00:19:57.892Z,923.79
2016-12-05T00:20:26.138Z,923.83
2016-12-05T00:20:54.379Z,923.8
2016-12-05T00:21:22.657Z,923.81
2016-12-05T00:21:50.885Z,923.82
2016-12-05T00:22:18.981Z,923.85
2016-12-05T00:22:47.305Z,923.85
2016-12-05T00:23:15.560Z,923.82
2016-12-05T00:23:43.684Z,923.87
2016-12-05T00:24:11.906Z,923.91
2016-12-05T00:24:40.083Z,923.87
2016-12-05T00:25:08.201Z,923.91
2016-12-05T00:25:36.523Z,923.88
2016-12-05T00:26:47.732Z,923.87
2016-12-05T00:27:15.997Z,923.88
2016-12-05T00:27:44.261Z,923.88
2016-12-05T00:28:12.287Z,923.91
2016-12-05T00:28:40.884Z,923.9
2016-12-05T00:29:09.223Z,923.89
2016-12-05T00:29:37.475Z,923.9
2016-12-05T00:30:59.946Z,923.86
2016-12-05T00:31:28.234Z,923.83
2016-12-05T00:31:56.432Z,923.76
2016-12-05T00:32:24.666Z,923.82
2016-12-05T00:32:52.887Z,923.81
2016-12-05T00:33:21.173Z,923.82
2016-12-05T00:33:49.360Z,923.82
2016-12-05T00:34:17.657Z,923.78
2016-12-05T00:34:45.791Z,923.79
2016-12-05T00:35:13.914Z,923.78
2016-12-05T00:35:42.109Z,923.78
2016-12-05T00:36:10.363Z,923.74
2016-12-05T00:36:38.504Z,923.75
2016-12-05T00:37:06.957Z,923.72
2016-12-05T00:37:34.997Z,923.75
2016-12-05T00:38:03.214Z,923.67
2016-12-05T00:38:31.561Z,923.69
2016-12-05T00:38:59.595Z,923.68
2016-12-05T00:39:27.880Z,923.7
2016-12-05T00:39:56.107Z,923.68
2016-12-05T00:40:24.373Z,923.72
2016-12-05T00:40:52.627Z,923.76
2016-12-05T00:41:20.784Z,923.74
2016-12-05T00:41:48.933Z,923.8
2016-12-05T00:42:16.970Z,923.79
2016-12-05T00:42:45.279Z,923.85
2016-12-05T00:43:13.515Z,923.86
2016-12-05T00:43:41.529Z,923.87
2016-12-05T00:44:09.787Z,923.87
2016-12-05T00:44:37.900Z,923.89
2016-12-05T00:45:06.217Z,923.9
2016-12-05T00:45:34.388Z,923.9
2016-12-05T00:46:02.630Z,923.95
2016-12-05T00:46:30.884Z,923.98
2016-12-05T00:46:59.251Z,923.94
2016-12-05T00:47:27.461Z,923.97
2016-12-05T00:47:55.814Z,923.94
2016-12-05T00:48:24.001Z,924.02
2016-12-05T00:48:52.287Z,923.96
2016-12-05T00:49:20.593Z,923.96
2016-12-05T00:49:48.860Z,923.95
2016-12-05T00:50:16.856Z,923.93
2016-12-05T00:50:45.104Z,923.91
2016-12-05T00:51:13.386Z,923.94
2016-12-05T00:51:41.620Z,923.9
2016-12-05T00:52:09.741Z,923.91
2016-12-05T00:52:38.066Z,923.88
2016-12-05T00:53:06.440Z,923.9
2016-12-05T00:53:34.611Z,923.93
2016-12-05T00:54:02.714Z,923.86
2016-12-05T00:54:30.554Z,923.86
2016-12-05T00:54:58.791Z,923.89
2016-12-05T00:55:26.823Z,923.91
2016-12-05T00:55:55.103Z,923.9
2016-12-05T00:56:23.268Z,923.91
2016-12-05T00:56:51.415Z,923.92
2016-12-05T00:57:19.631Z,923.88
2016-12-05T00:57:47.892Z,923.92
2016-12-05T00:58:15.996Z,923.93
2016-12-05T00:58:44.311Z,923.91
2016-12-05T00:59:12.628Z,923.89
2016-12-05T00:59:40.670Z,923.86
2016-12-05T01:00:08.950Z,923.91
2016-12-05T01:00:37.180Z,923.86
2016-12-05T01:01:05.203Z,923.93
2016-12-05T01:01:33.399Z,923.88
2016-12-05T01:02:01.688Z,923.84
2016-12-05T01:02:29.986Z,923.82
2016-12-05T01:02:58.345Z,923.82
2016-12-05T01:03:26.582Z,923.82
2016-12-05T01:03:54.851Z,923.85
2016-12-05T01:04:23.141Z,923.87
2016-12-05T01:04:51.491Z,923.85
2016-12-05T01:05:19.765Z,923.84
2016-12-05T01:05:48.157Z,923.85
2016-12-05T01:06:16.400Z,923.86
2016-12-05T01:06:44.600Z,923.85
2016-12-05T01:07:12.793Z,923.91
2016-12-05T01:07:40.947Z,923.89
2016-12-05T01:08:09.089Z,923.86
2016-12-05T01:08:37.227Z,923.83
2016-12-05T01:09:05.521Z,923.84
2016-12-05T01:09:33.522Z,923.89
2016-12-05T01:10:01.783Z,923.82
2016-12-05T01:10:29.885Z,923.85
2016-12-05T01:10:58.025Z,923.83
2016-12-05T01:11:26.039Z,923.84
2016-12-05T01:11:54.222Z,923.79
2016-12-05T01:12:22.373Z,923.82
2016-12-05T01:12:50.471Z,923.78
2016-12-05T01:13:18.805Z,923.8
2016-12-05T01:13:47.183Z,923.78
2016-12-05T01:14:15.379Z,923.78
2016-12-05T01:14:43.527Z,923.73
2016-12-05T01:15:11.801Z,923.77
2016-12-05T01:15:40.151Z,923.75
2016-12-05T01:16:08.403Z,923.79
2016-12-05T01:16:36.388Z,923.77
2016-12-05T01:17:04.546Z,923.78
2016-12-05T01:17:32.747Z,923.79
2016-12-05T01:18:01.059Z,923.82
2016-12-05T01:18:29.340Z,923.83
2016-12-05T01:18:57.463Z,923.82
2016-12-05T01:19:25.540Z,923.87
2016-12-05T01:19:53.882Z,923.86
2016-12-05T01:20:22.217Z,923.87
2016-12-05T01:20:50.577Z,923.88
2016-12-05T01:21:18.857Z,923.85
2016-12-05T01:21:47.147Z,923.84
2016-12-05T01:22:15.536Z,923.86
2016-12-05T01:22:43.970Z,923.83
2016-12-05T01:23:12.087Z,923.88
2016-12-05T01:23:40.160Z,923.85
2016-12-05T01:24:08.277Z,923.87
2016-12-05T01:24:36.479Z,923.86
2016-12-05T01:25:04.576Z,923.88
2016-12-05T01:25:32.867Z,923.88
2016-12-05T01:26:01.285Z,923.84
2016-12-05T01:26:29.573Z,923.89
2016-12-05T01:26:57.850Z,923.83
2016-12-05T01:27:26.251Z,923.89
2016-12-05T01:27:54.657Z,923.86
2016-12-05T01:28:22.574Z,923.83
2016-12-05T01:28:50.886Z,923.82
2016-12-05T01:29:19.019Z,923.86
2016-12-05T01:30:18.970Z,923.84
2016-12-05T01:30:47.211Z,923.85
2016-12-05T01:31:15.473Z,923.84
2016-12-05T01:31:43.585Z,923.8
2016-12-05T01:32:11.944Z,923.83
2016-12-05T01:32:40.355Z,923.77
2016-12-05T01:33:08.591Z,923.74
2016-12-05T01:33:36.856Z,923.74
2016-12-05T01:34:05.113Z,923.75
2016-12-05T01:35:16.249Z,923.73
2016-12-05T01:35:44.553Z,923.77
2016-12-05T01:36:12.817Z,923.73
2016-12-05T01:36:41.080Z,923.75
2016-12-05T01:37:09.402Z,923.75
2016-12-05T01:37:37.517Z,923.79
2016-12-05T01:38:05.821Z,923.78
2016-12-05T01:38:34.088Z,923.77
2016-12-05T01:39:02.178Z,923.82
2016-12-05T01:39:30.422Z,923.81
2016-12-05T01:39:58.539Z,923.82
2016-12-05T01:40:26.664Z,923.81
2016-12-05T01:40:54.905Z,923.88
2016-12-05T01:41:22.965Z,923.84
2016-12-05T01:41:51.230Z,923.77
2016-12-05T01:42:19.250Z,923.85
2016-12-05T01:42:47.642Z,923.84
2016-12-05T01:43:15.805Z,923.83
2016-12-05T01:43:44.158Z,923.87
2016-12-05T01:44:12.363Z,923.84
2016-12-05T01:44:40.672Z,923.84
2016-12-05T01:45:08.881Z,923.82
2016-12-05T01:45:37.001Z,923.8
2016-12-05T01:46:05.295Z,923.8
2016-12-05T01:46:33.591Z,923.79
2016-12-05T01:47:01.829Z,923.74
2016-12-05T01:47:29.845Z,923.77
2016-12-05T01:47:57.931Z,923.79
2016-12-05T01:48:26.210Z,923.8
2016-12-05T01:48:54.351Z,923.81
2016-12-05T01:49:22.408Z,923.83
2016-12-05T01:50:39.309Z,923.86
2016-12-05T01:51:07.439Z,923.79
2016-12-05T01:51:35.683Z,923.77
2016-12-05T01:52:03.893Z,923.78
2016-12-05T01:52:32.336Z,923.8
2016-12-05T01:53:00.703Z,923.8
2016-12-05T01:53:28.992Z,923.8
2016-12-05T01:53:57.079Z,923.79
2016-12-05T01:54:25.374Z,923.81
2016-12-05T01:54:53.483Z,923.77
2016-12-05T01:55:21.614Z,923.77
2016-12-05T01:55:49.716Z,923.79
2016-12-05T01:56:17.956Z,923.78
2016-12-05T01:56:46.058Z,923.79
2016-12-05T01:57:14.254Z,923.86
2016-12-05T01:57:42.711Z,923.86
2016-12-05T01:58:10.926Z,923.88
2016-12-05T01:58:39.188Z,923.92
2016-12-05T01:59:07.486Z,923.89
2016-12-05T01:59:35.730Z,923.92
2016-12-05T02:00:03.832Z,923.91
2016-12-05T02:00:32.090Z,923.91
2016-12-05T02:01:00.322Z,923.93
2016-12-05T02:01:28.550Z,923.96
2016-12-05T02:02:51.155Z,923.99
2016-12-05T02:03:19.371Z,923.97
2016-12-05T02:03:47.406Z,923.95
2016-12-05T02:06:01.601Z,923.95
2016-12-05T02:06:29.877Z,923.88
2016-12-05T02:06:58.064Z,923.9
2016-12-05T02:07:26.339Z,923.94
2016-12-05T02:07:54.688Z,923.85
2016-12-05T02:08:22.783Z,923.92
2016-12-05T02:08:50.782Z,923.9
2016-12-05T02:09:18.966Z,923.83
2016-12-05T02:09:47.224Z,923.88
2016-12-05T02:10:15.335Z,923.91
2016-12-05T02:10:43.356Z,923.91
2016-12-05T02:11:11.645Z,923.89
2016-12-05T02:11:39.741Z,923.88
2016-12-05T02:12:07.968Z,923.89
2016-12-05T02:12:36.253Z,923.91
2016-12-05T02:13:04.645Z,923.9
2016-12-05T02:13:32.951Z,923.9
2016-12-05T02:14:01.240Z,923.88
2016-12-05T02:14:29.216Z,923.86
2016-12-05T02:14:57.512Z,923.86
2016-12-05T02:15:25.598Z,923.85
2016-12-05T02:15:53.777Z,923.84
2016-12-05T02:16:21.840Z,923.88
2016-12-05T02:16:50.025Z,923.91
2016-12-05T02:17:17.995Z,923.89
2016-12-05T02:17:46.087Z,923.89
2016-12-05T02:18:14.301Z,923.91
2016-12-05T02:18:42.623Z,923.87
2016-12-05T02:19:10.763Z,923.86
2016-12-05T02:19:38.991Z,923.9
2016-12-05T02:20:07.216Z,923.93
2016-12-05T02:20:35.541Z,923.94
2016-12-05T02:21:03.836Z,923.95
2016-12-05T02:21:31.946Z,923.93
2016-12-05T02:22:00.146Z,923.96
2016-12-05T02:22:28.178Z,923.98
2016-12-05T02:22:56.406Z,923.97
2016-12-05T02:23:24.628Z,923.96
2016-12-05T02:23:52.841Z,923.97
2016-12-05T02:24:20.738Z,924.02
2016-12-05T02:24:49.034Z,923.95
2016-12-05T02:25:17.254Z,923.94
2016-12-05T02:25:45.420Z,923.99
2016-12-05T02:26:13.659Z,923.99
2016-12-05T02:26:41.871Z,923.94
2016-12-05T02:27:10.151Z,923.92
2016-12-05T02:27:38.430Z,923.9
2016-12-05T02:28:06.740Z,923.92
2016-12-05T02:29:17.827Z,923.94
2016-12-05T02:29:46.046Z,923.96
2016-12-05T02:30:14.333Z,923.94
2016-12-05T02:30:42.516Z,923.93
2016-12-05T02:31:10.697Z,923.93
2016-12-05T02:32:27.402Z,923.93
2016-12-05T02:32:55.661Z,923.96
2016-12-05T02:33:23.845Z,923.96
2016-12-05T02:33:52.177Z,924
2016-12-05T02:34:20.329Z,923.98
2016-12-05T02:34:48.560Z,923.98
2016-12-05T02:35:16.756Z,924.02
2016-12-05T02:35:44.914Z,924
2016-12-05T02:36:13.057Z,924.01
2016-12-05T02:36:41.322Z,924.06
2016-12-05T02:37:09.545Z,924.03
2016-12-05T02:37:37.765Z,924.02
2016-12-05T02:38:06.264Z,924
2016-12-05T02:38:34.499Z,924.02
2016-12-05T02:39:02.459Z,923.98
2016-12-05T02:39:30.758Z,923.99
2016-12-05T02:39:58.891Z,923.97
2016-12-05T02:40:26.865Z,923.95
2016-12-05T02:40:55.093Z,923.94
2016-12-05T02:42:00.713Z,923.97
2016-12-05T02:42:29.051Z,923.9
2016-12-05T02:42:57.456Z,923.94
2016-12-05T02:43:25.643Z,923.91
2016-12-05T02:43:53.717Z,923.94
2016-12-05T02:44:21.687Z,923.9
2016-12-05T02:44:49.932Z,923.92
2016-12-05T02:45:17.939Z,923.98
2016-12-05T02:45:46.154Z,923.94
2016-12-05T02:46:14.399Z,923.93
2016-12-05T02:46:42.740Z,923.93
2016-12-05T02:47:10.789Z,923.99
2016-12-05T02:47:39.015Z,924.01
2016-12-05T02:48:07.372Z,924.01
2016-12-05T02:48:35.477Z,924
2016-12-05T02:49:03.776Z,924.02
2016-12-05T02:49:32.026Z,924.01
2016-12-05T02:50:00.396Z,923.97
2016-12-05T02:50:28.618Z,923.99
2016-12-05T02:50:56.927Z,923.97
2016-12-05T02:51:25.248Z,923.98
2016-12-05T02:51:53.377Z,923.99
2016-12-05T02:52:21.707Z,924
2016-12-05T02:52:50.050Z,923.98
2016-12-05T02:53:18.083Z,923.98
2016-12-05T02:53:46.376Z,923.97
2016-12-05T02:54:14.604Z,923.94
2016-12-05T02:54:42.737Z,923.97
2016-12-05T02:55:10.840Z,923.94
2016-12-05T02:55:39.074Z,923.93
2016-12-05T02:56:07.216Z,923.95
2016-12-05T02:56:35.493Z,923.93
2016-12-05T02:57:03.778Z,923.93
2016-12-05T02:57:31.932Z,923.94
2016-12-05T02:58:00.426Z,923.92
2016-12-05T02:58:28.550Z,923.93
2016-12-05T02:58:56.834Z,923.93
2016-12-05T02:59:25.187Z,923.94
2016-12-05T02:59:53.540Z,923.94
2016-12-05T03:00:21.828Z,923.94
2016-12-05T03:00:49.965Z,923.98
2016-12-05T03:01:18.213Z,923.99
2016-12-05T03:01:46.550Z,923.97
2016-12-05T03:02:14.766Z,923.97
2016-12-05T03:02:42.829Z,923.97
2016-12-05T03:03:10.905Z,923.98
2016-12-05T03:03:38.997Z,923.95
2016-12-05T03:04:07.342Z,923.99
2016-12-05T03:04:35.448Z,923.97
2016-12-05T03:05:03.806Z,923.97
2016-12-05T03:05:32.160Z,923.95
2016-12-05T03:06:00.266Z,923.98
2016-12-05T03:06:28.522Z,923.91
2016-12-05T03:06:56.809Z,923.93
2016-12-05T03:07:25.155Z,923.95
2016-12-05T03:07:53.285Z,923.93
2016-12-05T03:08:21.418Z,923.93
2016-12-05T03:08:49.756Z,923.92
2016-12-05T03:09:17.828Z,923.93
2016-12-05T03:09:46.044Z,923.89
2016-12-05T03:10:14.224Z,923.9
2016-12-05T03:10:42.397Z,923.89
2016-12-05T03:11:10.594Z,923.89
2016-12-05T03:11:38.934Z,923.91
2016-12-05T03:12:07.265Z,923.87
2016-12-05T03:12:35.508Z,923.91
2016-12-05T03:13:03.945Z,923.9
2016-12-05T03:13:32.104Z,923.9
2016-12-05T03:14:00.442Z,923.93
2016-12-05T03:14:28.583Z,923.89
2016-12-05T03:14:56.830Z,923.89
2016-12-05T03:15:25.028Z,923.9
2016-12-05T03:15:53.381Z,923.88
2016-12-05T03:16:21.675Z,923.91
2016-12-05T03:16:49.731Z,923.88
2016-12-05T03:17:18.018Z,923.88
2016-12-05T03:17:46.261Z,923.88
2016-12-05T03:18:14.574Z,923.84
2016-12-05T03:18:42.717Z,923.87
2016-12-05T03:19:11.053Z,923.89
2016-12-05T03:19:39.247Z,923.87
2016-12-05T03:20:07.327Z,923.85
2016-12-05T03:20:35.720Z,923.82
2016-12-05T03:21:03.948Z,923.83
2016-12-05T03:21:32.155Z,923.84
2016-12-05T03:22:00.448Z,923.77
2016-12-05T03:22:28.787Z,923.82
2016-12-05T03:22:57.088Z,923.79
2016-12-05T03:23:25.555Z,923.82
2016-12-05T03:23:53.646Z,923.79
2016-12-05T03:24:21.673Z,923.77
2016-12-05T03:24:49.720Z,923.76
2016-12-05T03:25:17.922Z,923.75
2016-12-05T03:25:46.206Z,923.74
2016-12-05T03:26:14.190Z,923.72
2016-12-05T03:26:42.404Z,923.73
2016-12-05T03:27:10.539Z,923.67
2016-12-05T03:27:38.753Z,923.66
2016-12-05T03:28:07.083Z,923.69
2016-12-05T03:28:35.523Z,923.66
2016-12-05T03:29:03.830Z,923.69
2016-12-05T03:29:32.013Z,923.67
2016-12-05T03:30:00.320Z,923.7
2016-12-05T03:30:28.481Z,923.68
2016-12-05T03:30:56.574Z,923.68
2016-12-05T03:31:24.863Z,923.69
2016-12-05T03:31:53.089Z,923.69
2016-12-05T03:32:21.282Z,923.67
2016-12-05T03:32:49.393Z,923.65
2016-12-05T03:33:17.692Z,923.63
2016-12-05T03:33:45.766Z,923.63
2016-12-05T03:34:13.988Z,923.65
2016-12-05T03:34:42.217Z,923.66
2016-12-05T03:35:10.325Z,923.62
2016-12-05T03:35:38.655Z,923.61
2016-12-05T03:36:06.976Z,923.6
2016-12-05T03:36:35.174Z,923.59
2016-12-05T03:37:03.342Z,923.58
2016-12-05T03:37:31.454Z,923.54
2016-12-05T03:37:59.775Z,923.57
2016-12-05T03:38:27.981Z,923.54
2016-12-05T03:38:56.088Z,923.53
2016-12-05T03:39:24.280Z,923.57
2016-12-05T03:39:52.509Z,923.55
2016-12-05T03:40:20.867Z,923.56
2016-12-05T03:40:49.111Z,923.54
2016-12-05T03:41:17.447Z,923.54
2016-12-05T03:41:45.615Z,923.53
2016-12-05T03:42:13.901Z,923.52
2016-12-05T03:42:42.082Z,923.51
2016-12-05T03:43:10.227Z,923.5
2016-12-05T03:43:38.458Z,923.5
2016-12-05T03:44:06.744Z,923.49
2016-12-05T03:44:34.938Z,923.5
2016-12-05T03:45:03.185Z,923.5
2016-12-05T03:45:31.354Z,923.5
2016-12-05T03:45:59.592Z,923.49
2016-12-05T03:46:27.796Z,923.5
2016-12-05T03:46:56.114Z,923.45
2016-12-05T03:47:24.374Z,923.49
2016-12-05T03:47:52.687Z,923.55
2016-12-05T03:48:21.105Z,923.51
2016-12-05T03:48:49.339Z,923.54
2016-12-05T03:49:17.603Z,923.52
2016-12-05T03:49:45.720Z,923.53
2016-12-05T03:50:14.039Z,923.57
2016-12-05T03:50:42.353Z,923.53
2016-12-05T03:51:10.506Z,923.51
2016-12-05T03:51:38.535Z,923.52
2016-12-05T03:52:06.536Z,923.54
2016-12-05T03:52:34.669Z,923.54
2016-12-05T03:53:02.704Z,923.52
2016-12-05T03:53:30.895Z,923.52
2016-12-05T03:53:59.004Z,923.53
2016-12-05T03:54:27.196Z,923.51
2016-12-05T03:54:55.391Z,923.52
2016-12-05T03:55:23.697Z,923.52
2016-12-05T03:55:51.805Z,923.47
2016-12-05T03:56:20.022Z,923.48
2016-12-05T03:56:48.333Z,923.5
2016-12-05T03:57:16.538Z,923.49
2016-12-05T03:57:44.782Z,923.48
2016-12-05T03:58:12.929Z,923.47
2016-12-05T03:58:41.175Z,923.43
2016-12-05T03:59:09.395Z,923.45
2016-12-05T03:59:37.512Z,923.43
2016-12-05T04:00:05.615Z,923.43
2016-12-05T04:00:33.966Z,923.41
2016-12-05T04:01:02.272Z,923.4
2016-12-05T04:01:30.595Z,923.39
2016-12-05T04:01:58.802Z,923.38
2016-12-05T04:02:27.052Z,923.4
2016-12-05T04:02:55.142Z,923.41
2016-12-05T04:03:23.495Z,923.4
2016-12-05T04:03:51.716Z,923.42
2016-12-05T04:04:19.965Z,923.42
2016-12-05T04:04:48.079Z,923.44
2016-12-05T04:05:16.428Z,923.49
2016-12-05T04:05:44.620Z,923.45
2016-12-05T04:06:12.949Z,923.5
2016-12-05T04:06:41.072Z,923.49
2016-12-05T04:07:09.201Z,923.49
2016-12-05T04:07:37.314Z,923.49
2016-12-05T04:08:05.615Z,923.43
2016-12-05T04:08:33.808Z,923.42
2016-12-05T04:09:01.892Z,923.43
2016-12-05T04:09:30.076Z,923.4
2016-12-05T04:09:58.022Z,923.41
2016-12-05T04:10:26.355Z,923.41
2016-12-05T04:10:54.564Z,923.39
2016-12-05T04:11:22.927Z,923.42
2016-12-05T04:11:51.151Z,923.42
2016-12-05T04:12:19.295Z,923.43
2016-12-05T04:12:47.468Z,923.44
2016-12-05T04:13:15.592Z,923.45
2016-12-05T04:13:44.025Z,923.47
2016-12-05T04:14:12.400Z,923.46
2016-12-05T04:14:40.711Z,923.46
2016-12-05T04:15:08.965Z,923.52
2016-12-05T04:15:37.018Z,923.45
2016-12-05T04:16:05.201Z,923.47
2016-12-05T04:16:33.401Z,923.45
2016-12-05T04:17:01.614Z,923.47
2016-12-05T04:17:29.679Z,923.47
2016-12-05T04:17:57.907Z,923.47
2016-12-05T04:18:26.023Z,923.46
2016-12-05T04:18:54.246Z,923.48
2016-12-05T04:19:22.578Z,923.46
2016-12-05T04:19:50.827Z,923.51
2016-12-05T04:20:19.112Z,923.5
2016-12-05T04:20:47.345Z,923.52
2016-12-05T04:22:04.129Z,923.5
2016-12-05T04:22:32.187Z,923.43
2016-12-05T04:23:00.418Z,923.47
2016-12-05T04:23:28.801Z,923.45
2016-12-05T04:23:57.040Z,923.46
2016-12-05T04:24:25.192Z,923.43
2016-12-05T04:24:53.449Z,923.39
2016-12-05T04:25:21.784Z,923.41
2016-12-05T04:25:49.992Z,923.4
2016-12-05T04:26:49.941Z,923.38
2016-12-05T04:27:18.004Z,923.38
2016-12-05T04:27:46.353Z,923.34
2016-12-05T04:28:14.352Z,923.36
2016-12-05T04:28:42.560Z,923.34
2016-12-05T04:29:10.939Z,923.32
2016-12-05T04:29:39.179Z,923.34
2016-12-05T04:30:07.460Z,923.33
2016-12-05T04:30:35.558Z,923.42
2016-12-05T04:31:03.736Z,923.36
2016-12-05T04:31:31.960Z,923.29
2016-12-05T04:32:00.119Z,923.34
2016-12-05T04:32:28.400Z,923.36
2016-12-05T04:32:56.734Z,923.35
2016-12-05T04:33:25.052Z,923.3
2016-12-05T04:34:24.948Z,923.33
2016-12-05T04:34:53.137Z,923.34
2016-12-05T04:35:21.357Z,923.3
2016-12-05T04:35:49.653Z,923.29
2016-12-05T04:36:17.953Z,923.29
2016-12-05T04:36:46.140Z,923.28
2016-12-05T04:37:14.460Z,923.28
2016-12-05T04:37:42.740Z,923.31
2016-12-05T04:38:10.670Z,923.28
2016-12-05T04:38:38.996Z,923.26
2016-12-05T04:39:07.142Z,923.25
2016-12-05T04:39:35.486Z,923.26
2016-12-05T04:40:03.679Z,923.26
2016-12-05T04:40:31.954Z,923.3
2016-12-05T04:41:00.184Z,923.27
2016-12-05T04:41:28.536Z,923.26
2016-12-05T04:41:56.702Z,923.22
2016-12-05T04:42:25.097Z,923.28
2016-12-05T04:43:36.366Z,923.23
2016-12-05T04:44:04.651Z,923.21
2016-12-05T04:44:32.834Z,923.27
2016-12-05T04:45:01.074Z,923.24
2016-12-05T04:45:29.279Z,923.25
2016-12-05T04:45:57.463Z,923.23
2016-12-05T04:46:25.571Z,923.21
2016-12-05T04:46:53.884Z,923.23
2016-12-05T04:47:22.360Z,923.21
2016-12-05T04:47:50.494Z,923.22
2016-12-05T04:48:18.514Z,923.2
2016-12-05T04:48:46.899Z,923.21
2016-12-05T04:49:15.405Z,923.22
2016-12-05T04:49:43.683Z,923.16
2016-12-05T04:50:11.991Z,923.15
2016-12-05T04:50:40.138Z,923.1
2016-12-05T04:51:08.382Z,923.08
2016-12-05T04:51:36.598Z,923.09
2016-12-05T04:52:04.564Z,923.06
2016-12-05T04:52:32.720Z,923.03
2016-12-05T04:53:01.074Z,923.06
2016-12-05T04:53:29.353Z,923.03
2016-12-05T04:53:57.668Z,923.03
2016-12-05T04:54:25.876Z,923.03
2016-12-05T04:54:54.101Z,923.06
2016-12-05T04:55:22.410Z,923.01
2016-12-05T04:55:50.690Z,923.01
2016-12-05T04:56:18.989Z,923
2016-12-05T04:56:47.263Z,922.95
2016-12-05T04:57:15.254Z,922.99
2016-12-05T04:57:43.496Z,922.96
2016-12-05T04:58:11.709Z,922.98
2016-12-05T04:59:28.606Z,922.99
2016-12-05T04:59:56.779Z,923
2016-12-05T05:00:24.865Z,923.03
2016-12-05T05:00:52.943Z,923.05
2016-12-05T05:01:21.187Z,923.07
2016-12-05T05:01:49.383Z,923.05
2016-12-05T05:02:17.707Z,923.05
2016-12-05T05:03:17.436Z,923.08
2016-12-05T05:03:45.586Z,923.03
2016-12-05T05:04:13.703Z,923.04
2016-12-05T05:04:42.013Z,923.05
2016-12-05T05:05:10.295Z,923.04
2016-12-05T05:05:38.563Z,923.05
2016-12-05T05:06:06.758Z,923.05
2016-12-05T05:06:34.972Z,923.01
2016-12-05T05:07:03.279Z,923.04
2016-12-05T05:08:14.583Z,923.04
2016-12-05T05:08:42.693Z,923.06
2016-12-05T05:09:10.943Z,923.04
2016-12-05T05:09:39.152Z,923.06
2016-12-05T05:10:07.404Z,923.06
2016-12-05T05:10:35.417Z,923.04
2016-12-05T05:11:03.522Z,923.01
2016-12-05T05:11:31.616Z,923.02
2016-12-05T05:11:59.962Z,922.99
2016-12-05T05:12:28.309Z,923
2016-12-05T05:12:56.602Z,923.01
2016-12-05T05:13:24.737Z,922.96
2016-12-05T05:13:52.966Z,922.95
2016-12-05T05:14:21.141Z,922.97
2016-12-05T05:14:49.182Z,922.96
2016-12-05T05:15:17.369Z,922.95
2016-12-05T05:15:45.560Z,922.95
2016-12-05T05:16:13.923Z,922.95
2016-12-05T05:16:42.148Z,922.97
2016-12-05T05:17:10.358Z,922.98
2016-12-05T05:17:38.655Z,922.97
2016-12-05T05:18:06.780Z,922.98
2016-12-05T05:18:35.071Z,922.99
2016-12-05T05:19:03.398Z,922.94
2016-12-05T05:19:31.617Z,922.95
2016-12-05T05:19:59.778Z,922.97
2016-12-05T05:20:27.950Z,922.97
2016-12-05T05:20:56.094Z,923.01
2016-12-05T05:21:24.290Z,923.02
2016-12-05T05:21:52.521Z,923.02
2016-12-05T05:22:20.694Z,923.03
2016-12-05T05:22:48.707Z,923.02
2016-12-05T05:23:16.908Z,923.05
2016-12-05T05:23:45.123Z,923.02
2016-12-05T05:24:13.349Z,923.05
2016-12-05T05:24:41.473Z,923.05
2016-12-05T05:25:10.008Z,923.06
2016-12-05T05:25:38.314Z,923.07
2016-12-05T05:26:06.498Z,923.09
2016-12-05T05:26:34.784Z,923.12
2016-12-05T05:27:02.846Z,923.13
2016-12-05T05:27:31.006Z,923.08
2016-12-05T05:27:58.922Z,923.07
2016-12-05T05:28:27.047Z,923.06
2016-12-05T05:28:55.248Z,923.04
2016-12-05T05:29:23.539Z,923.05
2016-12-05T05:29:51.900Z,923.08
2016-12-05T05:32:11.149Z,923.03
2016-12-05T05:32:39.490Z,923.07
2016-12-05T05:33:07.745Z,923.08
2016-12-05T05:33:35.861Z,923.08
2016-12-05T05:34:03.868Z,923.05
2016-12-05T05:34:32.357Z,923.06
2016-12-05T05:35:00.613Z,923.09
2016-12-05T05:35:28.909Z,923.05
2016-12-05T05:35:57.161Z,923.08
2016-12-05T05:36:25.496Z,923.04
2016-12-05T05:36:53.728Z,923.06
2016-12-05T05:37:22.003Z,923.02
2016-12-05T05:37:50.007Z,922.99
2016-12-05T05:38:18.224Z,922.92
2016-12-05T05:38:46.309Z,922.93
2016-12-05T05:39:14.750Z,922.88
2016-12-05T05:39:43.108Z,922.83
2016-12-05T05:40:11.215Z,922.87
2016-12-05T05:40:39.429Z,922.85
2016-12-05T05:41:07.582Z,922.82
2016-12-05T05:41:35.786Z,922.82
2016-12-05T05:42:03.911Z,922.81
2016-12-05T05:42:32.182Z,922.81
2016-12-05T05:43:00.462Z,922.82
2016-12-05T05:43:28.678Z,922.77
2016-12-05T05:43:56.898Z,922.77
2016-12-05T05:44:25.040Z,922.72
2016-12-05T05:44:53.248Z,922.73
2016-12-05T05:45:21.419Z,922.75
2016-12-05T05:45:49.616Z,922.7
2016-12-05T05:46:17.702Z,922.74
2016-12-05T05:46:45.865Z,922.72
2016-12-05T05:47:14.116Z,922.71
2016-12-05T05:47:42.416Z,922.71
2016-12-05T05:48:10.594Z,922.72
2016-12-05T05:48:38.993Z,922.69
2016-12-05T05:49:07.301Z,922.67
2016-12-05T05:49:35.536Z,922.71
2016-12-05T05:50:03.758Z,922.68
2016-12-05T05:50:31.961Z,922.66
2016-12-05T05:51:00.176Z,922.67
2016-12-05T05:51:28.337Z,922.68
2016-12-05T05:52:50.610Z,922.67
2016-12-05T05:53:18.812Z,922.66
2016-12-05T05:53:47.262Z,922.66
2016-12-05T05:54:15.507Z,922.66
2016-12-05T05:54:43.636Z,922.59
2016-12-05T05:55:11.830Z,922.63
2016-12-05T05:55:40.043Z,922.6
2016-12-05T05:56:08.100Z,922.61
2016-12-05T05:56:36.163Z,922.62
2016-12-05T05:57:04.266Z,922.63
2016-12-05T05:57:32.575Z,922.62
2016-12-05T05:58:00.904Z,922.63
2016-12-05T05:58:29.033Z,922.62
2016-12-05T05:58:57.267Z,922.61
2016-12-05T05:59:25.410Z,922.63
2016-12-05T05:59:53.669Z,922.68
2016-12-05T06:00:21.867Z,922.69
2016-12-05T06:00:50.192Z,922.65
2016-12-05T06:01:18.416Z,922.69
2016-12-05T06:01:46.625Z,922.69
2016-12-05T06:02:14.973Z,922.67
2016-12-05T06:02:43.145Z,922.68
2016-12-05T06:03:11.423Z,922.68
2016-12-05T06:03:39.645Z,922.7
2016-12-05T06:04:07.921Z,922.68
2016-12-05T06:04:36.137Z,922.71
2016-12-05T06:05:04.359Z,922.69
2016-12-05T06:05:32.709Z,922.67
2016-12-05T06:06:00.888Z,922.68
2016-12-05T06:06:29.161Z,922.71
2016-12-05T06:07:40.313Z,922.7
2016-12-05T06:08:08.561Z,922.73
2016-12-05T06:08:36.591Z,922.74
2016-12-05T06:09:04.790Z,922.73
2016-12-05T06:09:32.943Z,922.71
2016-12-05T06:10:01.172Z,922.72